Time;durP1;ratioP1;P1;durP2;ratioP2;P2;SDS_P1;SDS_P2;PMS_P1;PMS_P2;Temp;Humidity;BMP_temperature;BMP_pressure;BME280_temperature;BME280_humidity;BME280_pressure;Samples;Min_cycle;Max_cycle;Signal;HPM_P1;HPM_P2
2021/12/20 00:00:10;;;;;;;28.98;12.45;;;;;;;6.01;100.00;102817.41;5200848;28;20497;-76
2021/12/20 00:02:44;;;;;;;31.35;12.23;;;;;;;5.96;100.00;102816.81;5199937;28;20105;-76
2021/12/20 00:05:15;;;;;;;36.38;11.45;;;;;;;5.95;100.00;102828.44;5200662;28;20029;-75
2021/12/20 00:07:46;;;;;;;38.17;13.57;;;;;;;5.92;100.00;102818.81;5200704;28;20030;-75
2021/12/20 00:10:18;;;;;;;29.00;11.60;;;;;;;6.01;100.00;102809.44;5200871;28;20033;-75
2021/12/20 00:12:49;;;;;;;34.33;12.43;;;;;;;6.00;100.00;102814.84;5200998;28;20044;-76
2021/12/20 00:15:20;;;;;;;37.67;12.35;;;;;;;5.95;100.00;102817.78;5186657;28;20052;-76
2021/12/20 00:17:51;;;;;;;34.92;12.95;;;;;;;5.90;100.00;102815.34;5201048;28;20021;-75
2021/12/20 00:20:21;;;;;;;31.48;11.85;;;;;;;5.91;100.00;102808.22;5199642;28;20021;-75
2021/12/20 00:22:52;;;;;;;28.65;10.98;;;;;;;5.89;100.00;102812.78;5200774;28;20357;-76
2021/12/20 00:25:23;;;;;;;32.35;10.25;;;;;;;5.89;100.00;102810.13;5200767;28;20386;-75
2021/12/20 00:27:54;;;;;;;27.17;11.43;;;;;;;5.92;100.00;102808.19;5200903;28;20029;-76
2021/12/20 00:30:24;;;;;;;41.50;14.57;;;;;;;5.97;100.00;102805.22;5199472;28;20552;-76
2021/12/20 00:32:55;;;;;;;31.65;12.80;;;;;;;5.94;100.00;102811.59;5200244;28;20095;-76
2021/12/20 00:35:25;;;;;;;29.40;11.57;;;;;;;5.92;100.00;102812.63;5199058;28;20027;-76
2021/12/20 00:40:45;;;;;;;50.72;14.27;;;;;;;6.03;100.00;102798.69;5200321;28;20121;-76
2021/12/20 00:43:16;;;;;;;32.88;13.23;;;;;;;6.03;100.00;102809.34;5200363;28;20568;-76
2021/12/20 00:45:46;;;;;;;35.70;12.63;;;;;;;5.97;100.00;102802.56;5200033;28;20104;-76
2021/12/20 00:48:17;;;;;;;31.05;12.18;;;;;;;5.93;100.00;102788.56;5200303;28;20017;-76
2021/12/20 00:50:47;;;;;;;29.70;12.10;;;;;;;6.00;100.00;102797.06;5199355;28;20444;-76
2021/12/20 00:53:18;;;;;;;35.50;13.50;;;;;;;6.01;100.00;102795.25;5199478;28;20038;-76
2021/12/20 00:55:48;;;;;;;35.03;13.48;;;;;;;6.00;100.00;102794.41;5199810;28;20026;-76
2021/12/20 00:58:19;;;;;;;31.25;12.40;;;;;;;6.00;100.00;102785.53;5199224;28;20028;-76
2021/12/20 01:00:51;;;;;;;35.65;12.82;;;;;;;5.95;100.00;102792.00;5200330;28;20036;-76
2021/12/20 01:03:22;;;;;;;32.85;13.48;;;;;;;5.96;100.00;102793.69;5200185;28;20079;-76
2021/12/20 01:05:53;;;;;;;39.33;12.05;;;;;;;5.97;100.00;102791.91;5199939;28;20449;-76
2021/12/20 01:08:23;;;;;;;36.33;13.02;;;;;;;6.01;100.00;102789.91;5198713;28;20029;-76
2021/12/20 01:10:55;;;;;;;35.42;13.65;;;;;;;5.93;100.00;102793.91;5200396;28;20029;-76
2021/12/20 01:13:29;;;;;;;30.75;13.02;;;;;;;5.89;100.00;102791.47;5215636;28;20053;-76
2021/12/20 01:16:03;;;;;;;40.63;13.73;;;;;;;6.01;100.00;102780.13;5200026;28;20029;-76
2021/12/20 01:18:34;;;;;;;33.08;12.77;;;;;;;6.00;100.00;102786.41;5200826;28;20021;-76
2021/12/20 01:21:05;;;;;;;38.13;14.25;;;;;;;5.92;100.00;102796.63;5198576;28;20029;-76
2021/12/20 01:23:36;;;;;;;39.72;13.85;;;;;;;5.86;100.00;102789.81;5199212;28;20048;-76
2021/12/20 01:26:07;;;;;;;37.53;13.95;;;;;;;5.87;100.00;102780.91;5199864;28;20512;-76
2021/12/20 01:28:39;;;;;;;47.38;18.33;;;;;;;5.89;100.00;102784.31;5199997;28;20033;-76
2021/12/20 01:31:10;;;;;;;39.85;14.45;;;;;;;5.84;100.00;102783.72;5198708;28;20439;-76
2021/12/20 01:33:40;;;;;;;38.72;14.82;;;;;;;5.85;100.00;102785.44;5204209;28;20021;-76
2021/12/20 01:36:11;;;;;;;50.38;16.63;;;;;;;5.81;100.00;102791.88;5203643;28;20022;-76
2021/12/20 01:38:42;;;;;;;40.70;15.73;;;;;;;5.81;100.00;102783.03;5203005;28;20021;-76
2021/12/20 01:41:13;;;;;;;41.15;15.55;;;;;;;5.85;100.00;102782.78;5202866;28;20029;-76
2021/12/20 01:43:44;;;;;;;42.90;15.73;;;;;;;5.92;100.00;102780.66;5203578;28;20033;-76
2021/12/20 01:46:15;;;;;;;39.97;14.85;;;;;;;5.99;100.00;102773.19;5186335;28;20021;-75
2021/12/20 01:48:46;;;;;;;35.35;14.45;;;;;;;6.01;100.00;102771.28;5203807;28;20083;-77
2021/12/20 01:53:47;;;;;;;35.85;14.07;;;;;;;5.95;100.00;102781.34;5203349;28;20037;-77
2021/12/20 01:56:18;;;;;;;34.70;14.20;;;;;;;5.93;100.00;102774.41;5202829;28;20108;-76
2021/12/20 01:58:48;;;;;;;32.22;12.85;;;;;;;5.87;100.00;102780.03;5203489;28;20415;-75
2021/12/20 02:01:19;;;;;;;30.38;13.32;;;;;;;5.83;100.00;102782.03;5203314;28;20029;-76
2021/12/20 02:03:56;;;;;;;29.08;11.35;;;;;;;5.85;100.00;102785.44;5203557;28;20025;-75
2021/12/20 02:06:33;;;;;;;30.13;11.18;;;;;;;5.82;100.00;102785.59;5203865;28;20026;-76
2021/12/20 02:09:08;;;;;;;26.23;10.60;;;;;;;5.88;100.00;102779.94;5203993;28;20116;-76
2021/12/20 02:11:42;;;;;;;18.40;8.57;;;;;;;5.86;100.00;102779.16;5203517;28;20381;-76
2021/12/20 02:14:13;;;;;;;27.35;9.52;;;;;;;5.84;100.00;102782.88;5203413;28;20495;-76
2021/12/20 02:16:45;;;;;;;18.70;8.05;;;;;;;5.83;100.00;102789.16;5203581;28;20029;-76
2021/12/20 02:19:17;;;;;;;22.45;7.18;;;;;;;5.81;100.00;102783.03;5203630;28;20021;-76
2021/12/20 02:21:48;;;;;;;15.07;6.80;;;;;;;5.82;100.00;102790.09;5203671;28;20531;-75
2021/12/20 02:24:18;;;;;;;23.05;8.63;;;;;;;5.84;100.00;102782.88;5202709;28;20029;-76
2021/12/20 02:26:50;;;;;;;24.17;7.45;;;;;;;5.89;100.00;102783.47;5202223;28;20064;-75
2021/12/20 02:29:27;;;;;;;14.10;5.95;;;;;;;5.89;100.00;102779.00;5203137;28;20473;-75
2021/12/20 02:37:37;;;;;;;13.95;6.18;;;;;;;5.90;100.00;102772.72;5202982;28;20034;-75
2021/12/20 02:40:08;;;;;;;16.17;5.32;;;;;;;5.84;100.00;102769.56;5202591;28;20495;-75
2021/12/20 02:42:41;;;;;;;13.43;5.20;;;;;;;5.81;100.00;102757.25;5202403;28;20032;-75
2021/12/20 02:45:14;;;;;;;10.52;3.83;;;;;;;5.85;100.00;102763.28;5201870;28;20501;-77
2021/12/20 02:47:47;;;;;;;8.00;3.75;;;;;;;5.80;100.00;102762.69;5204622;28;20037;-75
2021/12/20 02:50:19;;;;;;;8.35;4.20;;;;;;;5.81;100.00;102765.25;5185158;28;20127;-76
2021/12/20 02:52:50;;;;;;;11.15;3.10;;;;;;;5.75;100.00;102762.09;5202543;28;20048;-76
2021/12/20 02:55:20;;;;;;;11.45;3.33;;;;;;;5.69;100.00;102761.50;5200787;28;20037;-75
2021/12/20 02:57:51;;;;;;;12.00;3.08;;;;;;;5.66;100.00;102763.47;5208360;28;20017;-77
2021/12/20 03:00:22;;;;;;;7.60;2.67;;;;;;;5.71;100.00;102762.25;5205722;28;20386;-77
2021/12/20 03:02:53;;;;;;;6.68;2.78;;;;;;;5.78;100.00;102756.59;5206440;28;20160;-75
2021/12/20 03:05:24;;;;;;;3.30;1.65;;;;;;;5.80;100.00;102749.38;5202136;28;20456;-75
2021/12/20 03:08:00;;;;;;;4.95;2.15;;;;;;;5.83;100.00;102750.06;5204281;28;20022;-75
2021/12/20 03:10:31;;;;;;;7.03;1.77;;;;;;;5.81;100.00;102751.09;5202810;28;20085;-77
2021/12/20 03:13:02;;;;;;;5.47;1.55;;;;;;;5.75;100.00;102752.28;5209118;28;20025;-75
2021/12/20 03:15:33;;;;;;;10.15;1.95;;;;;;;5.72;100.00;102755.13;5202521;28;20481;-78
2021/12/20 03:18:03;;;;;;;5.20;1.67;;;;;;;5.67;100.00;102752.75;5203833;28;20026;-75
2021/12/20 03:20:34;;;;;;;12.65;2.85;;;;;;;5.62;100.00;102760.16;5202596;28;20035;-76
2021/12/20 03:23:04;;;;;;;7.78;2.30;;;;;;;5.57;100.00;102764.88;5202441;28;20025;-76
2021/12/20 03:25:35;;;;;;;11.75;3.35;;;;;;;5.52;100.00;102761.59;5206681;28;20029;-77
2021/12/20 03:28:05;;;;;;;8.82;2.47;;;;;;;5.52;100.00;102760.72;5206933;28;20033;-75
2021/12/20 03:30:36;;;;;;;9.30;2.30;;;;;;;5.49;100.00;102752.94;5209591;28;20084;-76
2021/12/20 03:33:06;;;;;;;6.95;2.00;;;;;;;5.48;100.00;102754.75;5207116;28;20024;-75
2021/12/20 03:35:37;;;;;;;8.45;2.13;;;;;;;5.47;100.00;102755.66;5201623;28;20052;-76
2021/12/20 03:38:09;;;;;;;6.85;2.33;;;;;;;5.46;100.00;102761.94;5202052;28;20014;-75
2021/12/20 03:40:39;;;;;;;7.68;2.03;;;;;;;5.50;100.00;102757.31;5200357;28;20040;-75
2021/12/20 03:43:12;;;;;;;18.88;2.25;;;;;;;5.48;100.00;102761.88;5207549;28;20022;-77
2021/12/20 03:45:44;;;;;;;15.77;3.70;;;;;;;5.46;100.00;102756.63;5207427;28;20032;-77
2021/12/20 03:48:15;;;;;;;14.93;2.30;;;;;;;5.44;100.00;102756.72;5206733;28;20071;-76
2021/12/20 03:50:45;;;;;;;10.27;2.05;;;;;;;5.44;100.00;102753.19;5201582;28;20037;-75
2021/12/20 03:53:16;;;;;;;16.77;3.28;;;;;;;5.42;100.00;102755.06;5213038;28;20108;-75
2021/12/20 03:55:46;;;;;;;12.95;2.63;;;;;;;5.43;100.00;102751.47;5201711;28;20030;-76
2021/12/20 03:58:17;;;;;;;10.50;2.30;;;;;;;5.41;100.00;102753.34;5201558;28;20009;-76
2021/12/20 04:00:49;;;;;;;10.85;2.30;;;;;;;5.40;100.00;102748.97;5201613;28;20360;-76
2021/12/20 04:03:19;;;;;;;15.88;2.15;;;;;;;5.41;100.00;102751.56;5200993;28;20025;-76
2021/12/20 04:05:50;;;;;;;10.30;2.45;;;;;;;5.44;100.00;102748.72;5199731;28;20040;-76
2021/12/20 04:08:21;;;;;;;7.53;2.15;;;;;;;5.44;100.00;102750.53;5201025;28;20025;-76
2021/12/20 04:10:51;;;;;;;9.98;2.10;;;;;;;5.42;100.00;102742.66;5201046;28;20056;-76
2021/12/20 04:13:22;;;;;;;12.63;2.47;;;;;;;5.38;100.00;102748.22;5200935;28;20029;-76
2021/12/20 04:15:53;;;;;;;16.88;3.92;;;;;;;5.37;100.00;102749.13;5200368;28;20036;-76
2021/12/20 04:18:25;;;;;;;12.27;2.35;;;;;;;5.35;100.00;102759.88;5199745;28;20013;-76
2021/12/20 04:20:56;;;;;;;10.38;2.20;;;;;;;5.34;100.00;102760.84;5199834;28;20033;-75
2021/12/20 04:23:26;;;;;;;20.10;3.40;;;;;;;5.35;100.00;102753.72;5200920;28;20032;-77
2021/12/20 04:25:57;;;;;;;18.27;3.72;;;;;;;5.32;100.00;102760.06;5200553;28;20045;-75
2021/12/20 04:28:27;;;;;;;17.65;4.18;;;;;;;5.31;100.00;102763.66;5200963;28;20469;-76
2021/12/20 04:30:58;;;;;;;12.93;2.95;;;;;;;5.30;100.00;102758.44;5201221;28;20075;-75
2021/12/20 04:33:28;;;;;;;18.83;3.42;;;;;;;5.29;100.00;102754.06;5201394;28;20056;-76
2021/12/20 04:35:59;;;;;;;21.83;2.72;;;;;;;5.29;100.00;102759.38;5200272;28;20366;-76
2021/12/20 04:38:31;;;;;;;13.73;2.95;;;;;;;5.27;100.00;102756.81;5201235;28;20021;-76
2021/12/20 04:41:02;;;;;;;10.82;2.65;;;;;;;5.27;100.00;102758.59;5200266;28;20296;-76
2021/12/20 04:43:32;;;;;;;7.25;2.60;;;;;;;5.26;100.00;102754.22;5200920;28;20029;-76
2021/12/20 04:46:03;;;;;;;19.30;3.83;;;;;;;5.25;100.00;102749.84;5199123;28;20040;-76
2021/12/20 04:48:33;;;;;;;9.90;2.80;;;;;;;5.24;100.00;102740.16;5201093;28;20028;-76
2021/12/20 04:51:04;;;;;;;12.77;2.55;;;;;;;5.26;100.00;102748.88;5200660;28;20497;-76
2021/12/20 04:53:34;;;;;;;18.90;2.90;;;;;;;5.30;100.00;102745.97;5200257;28;20029;-76
2021/12/20 04:56:05;;;;;;;15.23;2.88;;;;;;;5.29;100.00;102746.06;5200480;28;20545;-76
2021/12/20 04:58:36;;;;;;;11.43;2.58;;;;;;;5.33;100.00;102759.13;5200876;28;20032;-76
2021/12/20 05:01:07;;;;;;;13.50;2.88;;;;;;;5.36;100.00;102745.63;5200865;28;20029;-76
2021/12/20 05:03:37;;;;;;;13.00;2.75;;;;;;;5.32;100.00;102751.22;5200265;28;20025;-76
2021/12/20 05:06:08;;;;;;;14.35;2.80;;;;;;;5.28;100.00;102752.34;5410628;23;20045;-76
2021/12/20 05:08:47;;;;;;;13.05;2.85;;;;;;;5.29;100.00;102754.06;5158299;28;20743;-76
2021/12/20 05:11:19;;;;;;;11.35;2.35;;;;;;;5.27;100.00;102756.81;5178627;28;20029;-76
2021/12/20 05:13:50;;;;;;;25.50;2.75;;;;;;;5.24;100.00;102764.09;5184368;28;20022;-76
2021/12/20 05:16:21;;;;;;;20.15;3.30;;;;;;;5.27;100.00;102762.13;5183101;28;20060;-75
2021/12/20 05:18:52;;;;;;;22.48;2.92;;;;;;;5.30;100.00;102764.59;5184067;28;20076;-75
2021/12/20 05:21:22;;;;;;;11.60;2.17;;;;;;;5.32;100.00;102765.41;5166324;28;20049;-75
2021/12/20 05:23:52;;;;;;;18.17;2.78;;;;;;;5.32;100.00;102760.06;5183938;28;20385;-76
2021/12/20 05:26:23;;;;;;;15.23;3.35;;;;;;;5.33;100.00;102755.59;5182772;28;20065;-76
2021/12/20 05:28:55;;;;;;;13.93;2.92;;;;;;;5.35;100.00;102759.88;5174313;28;20491;-75
2021/12/20 05:31:25;;;;;;;23.67;3.75;;;;;;;5.33;100.00;102758.28;5166363;28;20028;-76
2021/12/20 05:33:56;;;;;;;11.77;2.53;;;;;;;5.36;100.00;102755.41;5182863;28;20026;-76
2021/12/20 05:36:26;;;;;;;18.38;2.88;;;;;;;5.37;100.00;102751.81;5165624;28;20434;-75
2021/12/20 05:38:57;;;;;;;15.00;2.65;;;;;;;5.37;100.00;102762.44;5183282;28;20096;-76
2021/12/20 05:41:27;;;;;;;30.10;4.72;;;;;;;5.33;100.00;102758.28;5183454;28;20021;-75
2021/12/20 05:43:58;;;;;;;16.13;3.00;;;;;;;5.30;100.00;102756.63;5183550;28;20401;-75
2021/12/20 05:46:29;;;;;;;16.45;2.22;;;;;;;5.29;100.00;102762.91;5165697;28;20189;-76
2021/12/20 05:48:59;;;;;;;21.85;4.88;;;;;;;5.29;100.00;102765.56;5181895;28;20030;-76
2021/12/20 05:51:30;;;;;;;21.27;3.13;;;;;;;5.32;100.00;102764.50;5183035;28;20442;-76
2021/12/20 05:54:01;;;;;;;16.10;2.70;;;;;;;5.36;100.00;102766.06;5169793;28;20030;-76
2021/12/20 05:56:31;;;;;;;20.17;3.17;;;;;;;5.35;100.00;102772.34;5183340;28;20385;-77
2021/12/20 05:59:02;;;;;;;20.25;3.50;;;;;;;5.35;100.00;102772.34;5183553;28;20528;-77
2021/12/20 06:01:32;;;;;;;16.63;2.45;;;;;;;5.30;100.00;102769.94;5165622;28;20494;-77
2021/12/20 06:04:03;;;;;;;16.52;2.33;;;;;;;5.24;100.00;102775.59;5182989;28;20029;-76
2021/12/20 06:06:33;;;;;;;15.90;3.65;;;;;;;5.19;100.00;102767.00;5182263;28;20030;-76
2021/12/20 06:09:04;;;;;;;15.45;3.50;;;;;;;5.19;100.00;102775.00;5165386;28;20047;-77
2021/12/20 06:11:34;;;;;;;11.77;2.50;;;;;;;5.18;100.00;102775.94;5182912;28;20038;-76
2021/12/20 06:14:04;;;;;;;15.57;2.28;;;;;;;5.15;100.00;102773.44;5183195;28;20030;-76
2021/12/20 06:16:36;;;;;;;23.73;2.75;;;;;;;5.12;100.00;102779.81;5182138;28;20505;-75
2021/12/20 06:19:07;;;;;;;19.98;2.60;;;;;;;5.11;100.00;102777.19;5182815;28;20014;-77
2021/12/20 06:21:38;;;;;;;18.60;2.95;;;;;;;5.07;100.00;102776.53;5182636;28;20563;-77
2021/12/20 06:24:08;;;;;;;14.23;3.00;;;;;;;5.06;100.00;102773.94;5182242;28;20038;-77
2021/12/20 06:26:39;;;;;;;14.48;3.15;;;;;;;5.05;100.00;102765.09;5182940;28;20368;-77
2021/12/20 06:29:09;;;;;;;24.48;3.45;;;;;;;5.13;100.00;102765.56;5180922;28;20105;-76
2021/12/20 06:31:40;;;;;;;18.15;2.58;;;;;;;5.15;100.00;102776.09;5182947;28;20029;-76
2021/12/20 06:34:11;;;;;;;24.85;3.13;;;;;;;5.20;100.00;102766.06;5182071;28;20030;-76
2021/12/20 06:36:41;;;;;;;16.48;2.50;;;;;;;5.18;100.00;102768.81;5183100;28;20394;-77
2021/12/20 06:39:12;;;;;;;36.75;5.18;;;;;;;5.15;100.00;102768.97;5182244;28;20014;-76
2021/12/20 06:41:43;;;;;;;18.52;3.35;;;;;;;5.13;100.00;102780.66;5181933;28;20133;-75
2021/12/20 06:44:13;;;;;;;27.90;3.50;;;;;;;5.07;100.00;102778.31;5164389;28;20477;-76
2021/12/20 06:46:44;;;;;;;22.30;3.22;;;;;;;5.04;100.00;102775.84;5182405;28;20053;-76
2021/12/20 06:49:15;;;;;;;35.65;3.78;;;;;;;5.04;100.00;102773.16;5164521;28;20030;-76
2021/12/20 06:51:46;;;;;;;25.42;3.70;;;;;;;5.04;100.00;102775.84;5167036;28;20114;-77
2021/12/20 06:54:19;;;;;;;36.95;3.60;;;;;;;5.05;100.00;102781.06;5167402;28;20022;-75
2021/12/20 06:56:49;;;;;;;22.60;2.83;;;;;;;5.09;100.00;102773.78;5179641;28;20026;-75
2021/12/20 06:59:20;;;;;;;35.88;5.15;;;;;;;5.10;100.00;102780.81;5179023;28;20029;-75
2021/12/20 07:01:50;;;;;;;18.85;3.15;;;;;;;5.07;100.00;102776.53;5178713;28;20032;-76
2021/12/20 07:04:21;;;;;;;22.45;2.60;;;;;;;5.04;100.00;102778.50;5178867;28;20026;-75
2021/12/20 07:06:53;;;;;;;19.20;3.42;;;;;;;5.01;100.00;102776.84;5178600;28;20663;-75
2021/12/20 07:09:23;;;;;;;28.20;3.67;;;;;;;5.00;100.00;102784.91;5161046;28;20029;-77
2021/12/20 07:11:54;;;;;;;29.00;2.88;;;;;;;4.99;100.00;102781.41;5161662;28;20482;-75
2021/12/20 07:14:27;;;;;;;31.48;3.90;;;;;;;4.97;100.00;102785.97;5161756;28;20030;-75
2021/12/20 07:16:57;;;;;;;20.33;3.20;;;;;;;4.96;100.00;102786.88;5161707;28;20029;-75
2021/12/20 07:19:28;;;;;;;22.08;2.95;;;;;;;4.93;100.00;102784.41;5178412;28;20025;-76
2021/12/20 07:21:58;;;;;;;22.60;3.15;;;;;;;4.93;100.00;102777.28;5179044;28;20137;-75
2021/12/20 07:24:28;;;;;;;24.48;2.78;;;;;;;4.91;100.00;102788.91;5178558;28;20037;-75
2021/12/20 07:26:59;;;;;;;23.08;3.33;;;;;;;4.91;100.00;102799.56;5178933;28;20026;-75
2021/12/20 07:29:29;;;;;;;30.05;3.90;;;;;;;4.91;100.00;102796.91;5177629;28;20022;-76
2021/12/20 07:32:00;;;;;;;17.48;2.78;;;;;;;4.89;100.00;102797.00;5179212;28;20065;-76
2021/12/20 07:34:30;;;;;;;18.45;3.65;;;;;;;4.90;100.00;102800.50;5178757;28;20030;-76
2021/12/20 07:37:01;;;;;;;22.60;3.60;;;;;;;4.89;100.00;102793.47;5178919;28;20033;-76
2021/12/20 07:39:31;;;;;;;20.77;3.05;;;;;;;4.92;100.00;102796.84;5160575;28;20024;-75
2021/12/20 07:42:03;;;;;;;28.50;3.13;;;;;;;4.91;100.00;102797.75;5178070;28;20026;-76
2021/12/20 07:44:33;;;;;;;20.75;3.40;;;;;;;4.90;100.00;102792.53;5161069;28;20021;-76
2021/12/20 07:47:04;;;;;;;17.45;2.78;;;;;;;4.91;100.00;102796.91;5178546;28;20025;-76
2021/12/20 07:49:34;;;;;;;20.83;3.25;;;;;;;4.89;100.00;102793.47;5178138;28;20022;-75
2021/12/20 07:52:05;;;;;;;32.15;3.50;;;;;;;4.91;100.00;102792.44;5175492;28;20034;-75
2021/12/20 07:54:36;;;;;;;26.67;3.20;;;;;;;4.92;100.00;102786.19;5167772;28;20024;-76
2021/12/20 07:57:06;;;;;;;12.23;2.58;;;;;;;5.02;100.00;102791.88;5177191;28;20033;-75
2021/12/20 07:59:37;;;;;;;24.67;3.55;;;;;;;5.04;100.00;102792.66;5178268;28;20149;-75
2021/12/20 08:02:08;;;;;;;22.67;3.20;;;;;;;5.04;100.00;102797.13;5178021;28;20394;-75
2021/12/20 08:04:38;;;;;;;25.63;3.03;;;;;;;5.05;100.00;102793.50;5178056;28;20174;-75
2021/12/20 08:07:09;;;;;;;14.25;2.63;;;;;;;5.12;100.00;102792.22;5159757;28;20505;-75
2021/12/20 08:09:39;;;;;;;17.83;3.90;;;;;;;5.14;100.00;102801.00;5177863;28;20363;-75
2021/12/20 08:12:10;;;;;;;20.35;3.40;;;;;;;5.12;100.00;102797.53;5178119;28;20100;-75
2021/12/20 08:14:41;;;;;;;29.30;4.20;;;;;;;5.09;100.00;102795.06;5180167;28;20045;-75
2021/12/20 08:17:11;;;;;;;23.15;3.38;;;;;;;5.09;100.00;102797.72;5178029;28;20022;-74
2021/12/20 08:19:42;;;;;;;21.77;3.75;;;;;;;5.05;100.00;102801.50;5127550;28;20397;-75
2021/12/20 08:22:12;;;;;;;28.05;3.15;;;;;;;5.04;100.00;102797.97;5160939;28;20053;-75
2021/12/20 08:24:42;;;;;;;17.83;3.20;;;;;;;5.08;100.00;102804.84;5177639;28;20112;-75
2021/12/20 08:27:13;;;;;;;19.95;2.88;;;;;;;5.13;100.00;102804.59;5178817;28;20030;-74
2021/12/20 08:29:44;;;;;;;26.20;3.10;;;;;;;5.15;100.00;102816.00;5160298;28;20021;-74
2021/12/20 08:32:14;;;;;;;17.50;3.60;;;;;;;5.17;100.00;102815.00;5177986;28;20033;-75
2021/12/20 08:34:45;;;;;;;17.58;2.83;;;;;;;5.22;100.00;102811.19;5177984;28;20026;-76
2021/12/20 08:37:15;;;;;;;34.25;4.90;;;;;;;5.30;100.00;102804.53;5177863;28;20033;-75
2021/12/20 08:39:46;;;;;;;20.33;2.45;;;;;;;5.37;100.00;102805.94;5177866;28;20505;-75
2021/12/20 08:42:17;;;;;;;24.25;3.22;;;;;;;5.38;100.00;102815.63;5177872;28;20107;-75
2021/12/20 08:44:49;;;;;;;22.63;3.53;;;;;;;5.43;100.00;102808.25;5163101;28;20042;-76
2021/12/20 08:47:20;;;;;;;25.40;4.35;;;;;;;5.45;100.00;102811.66;5178504;28;20113;-75
2021/12/20 08:49:50;;;;;;;28.55;3.60;;;;;;;5.44;100.00;102811.75;5176465;28;20109;-75
2021/12/20 08:52:21;;;;;;;23.48;2.72;;;;;;;5.42;100.00;102813.63;5172110;28;20113;-75
2021/12/20 08:54:51;;;;;;;14.52;2.58;;;;;;;5.43;100.00;102808.25;5168936;28;20318;-75
2021/12/20 08:57:22;;;;;;;23.42;3.15;;;;;;;5.44;100.00;102807.28;5176322;28;20422;-75
2021/12/20 08:59:52;;;;;;;29.17;3.15;;;;;;;5.48;100.00;102807.13;5177508;28;20017;-75
2021/12/20 09:02:23;;;;;;;18.45;3.10;;;;;;;5.49;100.00;102814.16;5176686;28;20030;-75
2021/12/20 09:04:53;;;;;;;14.95;2.90;;;;;;;5.55;100.00;102813.81;5159604;28;20029;-75
2021/12/20 09:07:24;;;;;;;12.52;2.60;;;;;;;5.60;100.00;102811.75;5176277;28;20502;-75
2021/12/20 09:09:55;;;;;;;19.13;3.03;;;;;;;5.61;100.00;102817.00;5159766;28;20061;-75
2021/12/20 09:12:25;;;;;;;17.77;2.72;;;;;;;5.60;100.00;102812.63;5178949;28;20025;-75
2021/12/20 09:14:56;;;;;;;25.27;3.45;;;;;;;5.61;100.00;102810.81;5177363;28;20022;-75
2021/12/20 09:17:26;;;;;;;23.27;3.72;;;;;;;5.67;100.00;102814.00;5178088;28;20469;-75
2021/12/20 09:19:57;;;;;;;31.75;3.42;;;;;;;5.70;100.00;102819.13;5177115;28;20036;-75
2021/12/20 09:22:29;;;;;;;31.88;3.90;;;;;;;5.77;100.00;102811.66;5178426;28;20025;-76
2021/12/20 09:25:00;;;;;;;25.60;3.97;;;;;;;5.85;100.00;102814.75;5160436;28;20105;-75
2021/12/20 09:27:30;;;;;;;28.20;3.95;;;;;;;5.80;100.00;102811.50;5178337;28;20120;-76
2021/12/20 09:30:01;;;;;;;31.70;3.67;;;;;;;5.80;100.00;102821.28;5177927;28;20094;-76
2021/12/20 09:32:31;;;;;;;30.52;3.63;;;;;;;5.79;100.00;102830.22;5177401;28;20041;-76
2021/12/20 09:35:02;;;;;;;23.15;3.28;;;;;;;5.78;100.00;102821.38;5177554;28;20060;-76
2021/12/20 09:37:33;;;;;;;25.10;4.93;;;;;;;5.78;100.00;102828.53;5174438;28;20026;-77
2021/12/20 09:40:06;;;;;;;23.58;3.63;;;;;;;5.78;100.00;102839.16;5176529;28;20033;-77
2021/12/20 09:42:59;;;;;;;24.73;3.58;;;;;;;5.78;100.00;102836.50;5142146;28;20034;-78
2021/12/20 09:45:30;;;;;;;25.77;3.70;;;;;;;5.80;100.00;102832.81;5175722;28;20085;-78
2021/12/20 09:48:01;;;;;;;22.88;3.33;;;;;;;5.85;100.00;102833.41;5178148;28;20048;-78
2021/12/20 09:50:32;;;;;;;21.92;3.70;;;;;;;5.82;100.00;102838.03;5177804;28;20015;-79
2021/12/20 09:53:07;;;;;;;33.60;3.80;;;;;;;5.83;100.00;102843.28;5179780;28;20029;-79
2021/12/20 09:55:38;;;;;;;30.67;4.05;;;;;;;5.84;100.00;102841.47;5181022;28;20096;-79
2021/12/20 09:58:09;;;;;;;22.30;3.50;;;;;;;5.84;100.00;102844.16;5164092;28;20033;-79
2021/12/20 10:00:40;;;;;;;21.65;3.60;;;;;;;5.84;100.00;102839.69;5181368;28;20575;-79
2021/12/20 10:03:13;;;;;;;21.80;3.78;;;;;;;5.84;100.00;102839.69;5181341;28;20057;-78
2021/12/20 10:05:43;;;;;;;21.98;3.80;;;;;;;5.88;100.00;102843.88;5163351;28;20034;-79
2021/12/20 10:08:19;;;;;;;23.63;3.72;;;;;;;5.92;100.00;102850.81;5181765;28;20013;-79
2021/12/20 10:10:50;;;;;;;22.50;4.68;;;;;;;5.95;100.00;102847.94;5181743;28;20029;-79
2021/12/20 10:13:25;;;;;;;39.80;5.72;;;;;;;5.97;100.00;102848.72;5181249;28;20029;-78
2021/12/20 10:15:57;;;;;;;24.30;3.85;;;;;;;6.01;100.00;102846.72;5178695;28;20026;-79
2021/12/20 10:18:31;;;;;;;30.23;4.97;;;;;;;6.04;100.00;102846.56;5161077;28;20030;-79
2021/12/20 10:21:02;;;;;;;29.15;4.18;;;;;;;6.09;100.00;102840.97;5161376;28;20026;-79
2021/12/20 10:23:40;;;;;;;24.23;3.58;;;;;;;6.10;100.00;102838.22;5178625;28;20398;-77
2021/12/20 10:26:15;;;;;;;25.42;3.95;;;;;;;6.15;100.00;102844.13;5160856;28;20058;-77
2021/12/20 10:28:51;;;;;;;29.60;4.18;;;;;;;6.21;100.00;102850.91;5160886;28;20049;-76
2021/12/20 10:31:24;;;;;;;28.92;4.43;;;;;;;6.28;100.00;102846.97;5177909;28;20303;-76
2021/12/20 10:33:59;;;;;;;22.13;3.95;;;;;;;6.31;100.00;102840.56;5178070;28;20034;-77
2021/12/20 10:36:32;;;;;;;24.70;5.18;;;;;;;6.38;100.00;102845.47;5178413;28;20034;-77
2021/12/20 10:39:04;;;;;;;22.35;4.00;;;;;;;6.44;100.00;102842.44;5178863;28;20077;-76
2021/12/20 10:41:37;;;;;;;17.38;3.97;;;;;;;6.46;100.00;102840.53;5177256;28;20490;-75
2021/12/20 10:44:16;;;;;;;21.60;3.72;;;;;;;6.48;100.00;102841.31;5178887;28;20076;-78
2021/12/20 10:46:50;;;;;;;29.10;3.95;;;;;;;6.44;100.00;102834.44;5162034;28;20094;-77
2021/12/20 10:49:40;;;;;;;29.48;4.03;;;;;;;6.47;100.00;102839.56;5179046;28;20025;-78
2021/12/20 10:52:10;;;;;;;19.30;3.42;;;;;;;6.46;100.00;102835.19;5178337;28;20030;-78
2021/12/20 10:54:43;;;;;;;21.38;4.05;;;;;;;6.50;100.00;102838.53;5178972;28;20449;-78
2021/12/20 10:57:25;;;;;;;30.83;4.55;;;;;;;6.54;100.00;102839.22;5145360;28;20032;-78
2021/12/20 11:00:15;;;;;;;28.75;4.15;;;;;;;6.59;100.00;102837.13;5178175;28;20157;-78
2021/12/20 11:11:40;;;;;;;22.50;3.08;;;;;;;6.70;100.00;102832.00;5178407;28;20052;-78
2021/12/20 11:14:11;;;;;;;;;;;;;;;6.73;100.00;102832.69;5179248;28;20022;-77
2021/12/20 11:16:49;;;;;;;25.23;3.83;;;;;;;6.75;100.00;102832.59;5178085;28;19916;-77
2021/12/20 11:19:21;;;;;;;20.98;3.28;;;;;;;6.79;100.00;102831.47;5145068;28;20030;-75
2021/12/20 11:22:12;;;;;;;21.48;3.38;;;;;;;6.78;100.00;102831.53;5178231;28;20037;-78
2021/12/20 11:24:46;;;;;;;13.43;2.50;;;;;;;6.73;100.00;102832.69;5160677;28;20509;-78
2021/12/20 11:27:20;;;;;;;16.10;2.60;;;;;;;6.71;100.00;102829.25;5178527;28;20462;-78
2021/12/20 11:29:54;;;;;;;20.08;3.35;;;;;;;6.80;100.00;102829.66;5177639;28;20382;-78
2021/12/20 11:32:25;;;;;;;20.52;2.92;;;;;;;6.86;100.00;102831.94;5177385;28;20032;-78
2021/12/20 11:34:57;;;;;;;21.00;3.97;;;;;;;6.87;100.00;102838.97;5177446;28;20033;-78
2021/12/20 11:37:29;;;;;;;29.15;3.30;;;;;;;6.84;100.00;102839.19;5178740;28;20037;-78
2021/12/20 11:40:03;;;;;;;21.85;3.85;;;;;;;6.79;100.00;102823.47;5178921;28;20157;-78
2021/12/20 11:42:33;;;;;;;16.90;3.28;;;;;;;6.81;100.00;102826.88;5161342;28;20030;-78
2021/12/20 11:45:07;;;;;;;18.73;2.85;;;;;;;6.81;100.00;102828.69;5161146;28;20029;-77
2021/12/20 11:48:04;;;;;;;19.55;2.83;;;;;;;6.78;100.00;102824.41;5161391;28;20025;-78
2021/12/20 11:50:38;;;;;;;25.83;4.13;;;;;;;6.75;100.00;102814.78;5160721;28;20021;-78
2021/12/20 11:53:12;;;;;;;25.02;4.07;;;;;;;6.72;100.00;102808.75;5178647;28;20084;-78
2021/12/20 11:56:00;;;;;;;17.80;2.63;;;;;;;6.60;100.00;102807.69;5160797;28;20034;-78